Terminal Aerodrome Forecast
Issued by NWS

Home | Current Version | Previous Version | Graphics & Text | Print | Product List | Glossary On
Versions: 1 2 3 4 5 6 7 8 9 10 11 12 13 14 15 16 17 18 19 20
000
FTUS43 KGRB 301100
TAFCWA
TAF
KCWA 301120Z 3012/0112 03008KT P6SM OVC009
     FM301500 06005KT P6SM BKN011
     FM301900 12006KT P6SM SCT014
     FM302300 10004KT P6SM SCT020
     FM010400 15004KT P6SM SCT007 BKN018=

USA.gov is the U.S. government's official web portal to all federal, state and local government web resources and services.